Glassell Park, California
Current Conditions -  °F | °C
As of 12:47 AM on Wednesday 22 Oct 2014 (Local Time) from KCQT Reporting Station
Clear Clear  
Wind Chill: 18°   Ceiling: Unl
Heat Index: 18°   Visibility: 10mi
Dew Point: 16°   Wind: 0mph
Humidity: 87%   Direction: NA
Pressure: 29.87"   Gusts: NA
Location:  34.1092°N, 118.228°W
Report Text: KCQT 220747Z AUTO 00000KT 10SM CLR 18/16 A2987 RMK AO2 SLP112 T01830161 402560183
Loading
Personal Weather Stations






























Interactive Weather Map
Tropical Storm Tracking
New forecast layout! Learn more

10-Day Weather Forecast

Advertisements
Track Severe Weather on mobile